createdAt,value
2016-07-19T00:01:07.186Z,1010.22
2016-07-19T00:16:11.865Z,1010.24
2016-07-19T00:31:07.192Z,1010.29
2016-07-19T00:46:11.784Z,1010.26
2016-07-19T01:01:13.515Z,1010.16
2016-07-19T01:16:18.043Z,1010.07
2016-07-19T01:31:07.212Z,1010.08
2016-07-19T01:46:15.925Z,1009.99
2016-07-19T02:01:13.543Z,1009.97
2016-07-19T02:16:07.232Z,1009.85
2016-07-19T02:31:07.277Z,1009.7
2016-07-19T02:46:07.249Z,1009.61
2016-07-19T03:01:07.254Z,1009.56
2016-07-19T03:16:07.252Z,1009.67
2016-07-19T03:31:07.299Z,1009.56
2016-07-19T03:46:07.273Z,1009.6
2016-07-19T04:01:16.284Z,1009.73
2016-07-19T04:16:09.296Z,1009.82
2016-07-19T04:31:07.346Z,1009.94
2016-07-19T04:46:17.532Z,1009.91
2016-07-19T05:01:07.331Z,1009.97
2016-07-19T05:16:07.337Z,1010.12
2016-07-19T05:31:07.383Z,1010.18
2016-07-19T05:46:18.735Z,1010.38
2016-07-19T06:01:09.361Z,1010.43
2016-07-19T06:16:15.492Z,1010.44
2016-07-19T06:31:07.415Z,1010.59
2016-07-19T06:46:13.622Z,1010.47
2016-07-19T07:01:13.516Z,1010.57
2016-07-19T07:16:09.519Z,1010.37
2016-07-19T07:31:12.055Z,1010.2
2016-07-19T07:46:14.429Z,1010.3
2016-07-19T08:01:14.474Z,1010.21
2016-07-19T08:16:07.431Z,1010.3
2016-07-19T08:31:12.521Z,1010.09
2016-07-19T08:46:22.353Z,1010.45
2016-07-19T09:01:12.038Z,1010.09
2016-07-19T09:16:12.165Z,1010.26
2016-07-19T09:31:07.457Z,1010.34
2016-07-19T09:46:11.723Z,1010.23
2016-07-19T10:01:07.457Z,1010.43
2016-07-19T10:16:09.605Z,1010.41
2016-07-19T10:31:07.479Z,1010.32
2016-07-19T10:46:07.495Z,1010.16
2016-07-19T11:01:10.505Z,1010.2
2016-07-19T11:16:07.497Z,1010.14
2016-07-19T11:31:07.493Z,1010.11
2016-07-19T11:46:07.534Z,1009.91
2016-07-19T12:01:07.503Z,1009.85
2016-07-19T12:16:07.560Z,1009.85
2016-07-19T12:31:07.518Z,1009.62
2016-07-19T12:46:13.736Z,1009.66
2016-07-19T13:01:07.526Z,1009.49
2016-07-19T13:16:22.136Z,1009.44
2016-07-19T13:31:09.648Z,1009.33
2016-07-19T13:46:12.131Z,1009.38
2016-07-19T14:01:13.559Z,1009.13
2016-07-19T14:16:11.573Z,1009.12
2016-07-19T14:31:13.805Z,1009.13
2016-07-19T14:46:07.582Z,1009.11
2016-07-19T15:01:07.602Z,1008.9
2016-07-19T15:16:07.603Z,1008.89
2016-07-19T15:31:09.776Z,1008.8
2016-07-19T15:46:07.632Z,1008.78
2016-07-19T16:01:09.642Z,1008.79
2016-07-19T16:16:13.763Z,1008.65
2016-07-19T16:31:07.664Z,1008.53
2016-07-19T16:46:07.729Z,1008.5
2016-07-19T17:01:09.684Z,1008.38
2016-07-19T17:16:13.992Z,1008.28
2016-07-19T17:31:12.296Z,1008.26
2016-07-19T17:46:07.750Z,1008.11
2016-07-19T18:01:07.733Z,1008.18
2016-07-19T18:16:07.740Z,1008.25
2016-07-19T18:31:14.900Z,1008.31
2016-07-19T18:46:12.723Z,1008.3
2016-07-19T19:01:12.388Z,1008.46
2016-07-19T19:16:07.809Z,1008.49
2016-07-19T19:31:12.403Z,1008.53
2016-07-19T19:46:13.449Z,1008.61
2016-07-19T20:01:12.410Z,1008.64
2016-07-19T20:16:08.012Z,1008.63
2016-07-19T20:31:07.872Z,1008.58
2016-07-19T20:46:07.950Z,1008.59
2016-07-19T21:01:12.673Z,1008.65
2016-07-19T21:16:09.972Z,1008.56
2016-07-19T21:31:12.579Z,1008.65
2016-07-19T21:46:07.991Z,1008.63
2016-07-19T22:01:09.944Z,1008.55
2016-07-19T22:16:12.926Z,1008.56
2016-07-19T22:31:07.950Z,1008.45
2016-07-19T22:46:07.988Z,1008.44
2016-07-19T23:01:08.005Z,1008.37
2016-07-19T23:16:15.118Z,1008.44
2016-07-19T23:31:08.024Z,1008.37
2016-07-19T23:46:08.065Z,1008.3
